Startpagina
METAR-TAF:

METAR-TAF

Vliegvelden :

Internationale Luchthaven Antwerpen

Antwerpen, België

breedte: 51-12N, lengte: 004-28E, hoogte: 12 m

Actueel weer

Dit bericht is 17 minuten geleden gemaakt, om 21:20 UTC
Wind 1 kt uit het zuidoosten
Temperatuur 20°C
Vochtigheid 73%
Druk 1013 hPa
Zicht 10 km of meer
geen wolken onder 1500 m en geen cumulonimbus

METAR: EBAW 162120Z AUTO 14001KT CAVOK 20/15 Q1013

Tijdstip: 23:37 (21:37 UTC)

Verwachting

Dit bericht is 1 uur en het 34 minuten geleden gemaakt, om 20:03 UTC
Verwachting geldig van 16 om 21 UTC tot 17 om 06 UTC
Wind 10 kt uit het oostnoordoosten
Zicht 10 km of meer
Weinig wolken op 6000 ft, Cumulonimbus.
Wijzigt naar
van 16 om 21 UTC tot 16 om 23 UTC
Wind 4 kt uit het zuidwesten

TAF: EBAW 162003Z 1621/1706 06010KT 9999 FEW060CB BECMG 1621/1623 23004KT

Waarnemingen en weersverwachtingen van meer dan 4000 vliegvelden (METAR en TAF).

De beschikbare stations zijn de gele en rode punten op de kaart.

Ga met uw muis naar het station om de naam te zien.

Klik dan om waarnemingen en weersverwachtingen te zien.

kaart wijzigen: klik op de groene knoppen met een zwart kruis om in te zoomen, op de groene knop met een streepje om uit te zoomen of op de groene pijlen voor aangrenzende kaarten.


METAR-TAF: